Terminal Aerodrome Forecast
Issued by NWS Raleigh/Durham, NC

Home | Current Version | Previous Version | Text Only | Print | Product List | Glossary On
Versions: 1 2 3 4 5 6 7 8 9 10 11 12 13 14 15 16 17 18 19 20 21 22 23 24 25 26 27 28 29 30 31 32 33
000
FTUS42 KRAH 221731
TAFFAY
TAF
KFAY 221731Z 2218/2318 VRB03KT P6SM SCT050 SCT120 BKN250
      TEMPO 2309/2312 1SM BR BKN015
     FM231500 03004KT P6SM SCT040=

USA.gov is the U.S. government's official web portal to all federal, state and local government web resources and services.